Hondo, New Mexico
Current Conditions -  °F | °C
As of 11:15 AM on Friday 28 Nov 2014 (Local Time) from KSRR Reporting Station
Clear Clear  
Wind Chill: 63°   Ceiling: Unl
Heat Index: 63°   Visibility: 10mi
Dew Point: 19°   Wind: 8mph
Humidity: 19%   Direction: 330°NNW
Pressure: 30.27"   Gusts: NA
Location:  33.39°N, 105.27°W
Report Text: KSRR 281815Z AUTO 33007KT 10SM CLR 17/M07 A3027 RMK AO2
Loading
Personal Weather Stations






























Interactive Weather Map New forecast layout! Learn more

10-Day Weather Forecast

Advertisements
Track Severe Weather on mobile